30°C Temp
19°C Dewpoint
% Humidity
Temperature
11 KM/H
7 MPH
6 KTS
90°
Due East

Wind Speed
Despejado
Pressure 1013.92 (hPa) - 29.94 (in)
Visibility 6.2 (mi) - 10.0 (km)

Current Conditions
LEAL
Location 70(km)
Metar :LEAL 171530Z 09006KT 050V140 CAVOK 30/19 Q1014 NOSIG
Sat 17th August 17:30 pm

Airport
  Metar Aviation API Data Provided by https://www.checkwx.com/ PHP scripts by weather34.com ©2019